sensor_id;sensor_type;location;lat;lon;timestamp;pressure;altitude;pressure_sealevel;temperature;humidity
55079;BME280;55187;49.496;6.010;2022-09-20T00:01:25;98077.94;;;3.73;100.00
55079;BME280;55187;49.496;6.010;2022-09-20T00:03:54;98085.09;;;3.71;100.00
55079;BME280;55187;49.496;6.010;2022-09-20T00:06:24;98076.00;;;3.75;100.00
55079;BME280;55187;49.496;6.010;2022-09-20T00:08:51;98077.09;;;3.72;100.00
55079;BME280;55187;49.496;6.010;2022-09-20T00:11:21;98075.22;;;3.84;100.00
55079;BME280;55187;49.496;6.010;2022-09-20T00:13:49;98073.78;;;4.01;100.00
55079;BME280;55187;49.496;6.010;2022-09-20T00:16:23;98071.94;;;3.82;100.00
55079;BME280;55187;49.496;6.010;2022-09-20T00:18:51;98070.25;;;3.81;100.00
55079;BME280;55187;49.496;6.010;2022-09-20T00:21:21;98064.41;;;3.68;100.00
55079;BME280;55187;49.496;6.010;2022-09-20T00:23:47;98061.44;;;3.82;100.00
55079;BME280;55187;49.496;6.010;2022-09-20T00:26:14;98063.41;;;3.90;100.00
55079;BME280;55187;49.496;6.010;2022-09-20T00:28:41;98058.44;;;3.87;100.00
55079;BME280;55187;49.496;6.010;2022-09-20T00:31:08;98054.53;;;3.81;100.00
55079;BME280;55187;49.496;6.010;2022-09-20T00:33:35;98052.03;;;3.70;100.00
55079;BME280;55187;49.496;6.010;2022-09-20T00:36:14;98053.94;;;3.68;100.00
55079;BME280;55187;49.496;6.010;2022-09-20T00:38:41;98055.44;;;3.61;100.00
55079;BME280;55187;49.496;6.010;2022-09-20T00:41:08;98059.31;;;3.66;100.00
55079;BME280;55187;49.496;6.010;2022-09-20T00:43:41;98062.06;;;3.65;100.00
55079;BME280;55187;49.496;6.010;2022-09-20T00:46:22;98062.06;;;3.65;100.00
55079;BME280;55187;49.496;6.010;2022-09-20T00:48:52;98068.53;;;3.70;100.00
55079;BME280;55187;49.496;6.010;2022-09-20T00:51:26;98069.94;;;3.74;100.00
55079;BME280;55187;49.496;6.010;2022-09-20T00:53:56;98058.47;;;3.66;100.00
55079;BME280;55187;49.496;6.010;2022-09-20T00:56:31;98061.31;;;3.53;100.00
55079;BME280;55187;49.496;6.010;2022-09-20T00:59:24;98067.22;;;3.45;100.00
55079;BME280;55187;49.496;6.010;2022-09-20T01:02:12;98064.59;;;3.45;100.00
55079;BME280;55187;49.496;6.010;2022-09-20T01:04:42;98061.41;;;3.42;100.00
55079;BME280;55187;49.496;6.010;2022-09-20T01:07:13;98063.72;;;3.35;100.00
55079;BME280;55187;49.496;6.010;2022-09-20T01:09:41;98055.09;;;3.44;100.00
55079;BME280;55187;49.496;6.010;2022-09-20T01:12:12;98056.22;;;3.51;100.00
55079;BME280;55187;49.496;6.010;2022-09-20T01:14:41;98053.09;;;3.57;100.00
55079;BME280;55187;49.496;6.010;2022-09-20T01:17:09;98057.13;;;3.71;100.00
55079;BME280;55187;49.496;6.010;2022-09-20T01:19:46;98049.31;;;3.91;100.00
55079;BME280;55187;49.496;6.010;2022-09-20T01:22:21;98048.75;;;3.77;100.00
55079;BME280;55187;49.496;6.010;2022-09-20T01:25:08;98056.63;;;3.77;100.00
55079;BME280;55187;49.496;6.010;2022-09-20T01:27:42;98050.22;;;3.70;100.00
55079;BME280;55187;49.496;6.010;2022-09-20T01:30:15;98055.94;;;3.85;100.00
55079;BME280;55187;49.496;6.010;2022-09-20T01:33:07;98065.41;;;3.76;100.00
55079;BME280;55187;49.496;6.010;2022-09-20T01:35:36;98064.41;;;3.68;100.00
55079;BME280;55187;49.496;6.010;2022-09-20T01:41:22;98075.16;;;3.65;100.00
55079;BME280;55187;49.496;6.010;2022-09-20T01:43:54;98064.56;;;3.66;100.00
55079;BME280;55187;49.496;6.010;2022-09-20T01:46:32;98066.09;;;3.69;100.00
55079;BME280;55187;49.496;6.010;2022-09-20T01:49:19;98066.78;;;3.71;100.00
55079;BME280;55187;49.496;6.010;2022-09-20T01:52:10;98061.16;;;3.75;100.00
55079;BME280;55187;49.496;6.010;2022-09-20T01:57:44;98054.66;;;4.20;100.00
55079;BME280;55187;49.496;6.010;2022-09-20T02:00:38;98050.81;;;4.34;100.00
55079;BME280;55187;49.496;6.010;2022-09-20T02:03:27;98051.78;;;4.33;100.00
55079;BME280;55187;49.496;6.010;2022-09-20T02:06:28;98055.94;;;4.35;100.00
55079;BME280;55187;49.496;6.010;2022-09-20T02:12:08;98056.47;;;4.39;100.00
55079;BME280;55187;49.496;6.010;2022-09-20T02:20:58;98062.09;;;4.25;100.00
55079;BME280;55187;49.496;6.010;2022-09-20T02:23:47;98070.53;;;4.28;100.00
55079;BME280;55187;49.496;6.010;2022-09-20T02:26:30;98062.50;;;4.30;100.00
55079;BME280;55187;49.496;6.010;2022-09-20T02:29:24;98058.13;;;4.30;100.00
55079;BME280;55187;49.496;6.010;2022-09-20T02:32:16;98060.19;;;4.46;100.00
55079;BME280;55187;49.496;6.010;2022-09-20T02:35:17;98060.63;;;4.51;100.00
55079;BME280;55187;49.496;6.010;2022-09-20T02:37:59;98050.97;;;4.52;100.00
55079;BME280;55187;49.496;6.010;2022-09-20T02:43:37;98054.00;;;4.86;100.00
55079;BME280;55187;49.496;6.010;2022-09-20T02:46:23;98050.81;;;4.82;100.00
55079;BME280;55187;49.496;6.010;2022-09-20T02:51:50;98052.63;;;4.82;100.00
55079;BME280;55187;49.496;6.010;2022-09-20T02:54:41;98060.75;;;4.89;100.00
55079;BME280;55187;49.496;6.010;2022-09-20T03:00:18;98059.50;;;5.02;100.00
55079;BME280;55187;49.496;6.010;2022-09-20T03:02:59;98048.59;;;5.07;100.00
55079;BME280;55187;49.496;6.010;2022-09-20T03:05:31;98068.44;;;5.19;100.00
55079;BME280;55187;49.496;6.010;2022-09-20T03:08:24;98058.50;;;5.23;100.00
55079;BME280;55187;49.496;6.010;2022-09-20T03:11:20;98067.59;;;5.38;100.00
55079;BME280;55187;49.496;6.010;2022-09-20T03:14:13;98065.41;;;5.24;100.00
55079;BME280;55187;49.496;6.010;2022-09-20T03:17:00;98063.72;;;5.33;100.00
55079;BME280;55187;49.496;6.010;2022-09-20T03:19:56;98062.09;;;5.32;100.00
55079;BME280;55187;49.496;6.010;2022-09-20T03:28:50;98063.47;;;5.26;100.00
55079;BME280;55187;49.496;6.010;2022-09-20T03:31:42;98063.19;;;5.29;100.00
55079;BME280;55187;49.496;6.010;2022-09-20T03:34:28;98061.09;;;5.33;100.00
55079;BME280;55187;49.496;6.010;2022-09-20T03:37:22;98061.66;;;5.36;100.00
55079;BME280;55187;49.496;6.010;2022-09-20T03:40:17;98071.63;;;5.23;100.00
55079;BME280;55187;49.496;6.010;2022-09-20T03:42:53;98064.88;;;5.20;100.00
55079;BME280;55187;49.496;6.010;2022-09-20T03:45:41;98069.44;;;5.18;100.00
55079;BME280;55187;49.496;6.010;2022-09-20T03:51:21;98074.13;;;5.24;100.00
55079;BME280;55187;49.496;6.010;2022-09-20T03:54:20;98067.50;;;5.20;100.00
55079;BME280;55187;49.496;6.010;2022-09-20T03:57:05;98080.72;;;5.29;100.00
55079;BME280;55187;49.496;6.010;2022-09-20T03:59:57;98076.59;;;5.26;100.00
55079;BME280;55187;49.496;6.010;2022-09-20T04:02:44;98075.91;;;5.14;100.00
55079;BME280;55187;49.496;6.010;2022-09-20T04:08:29;98071.78;;;5.12;100.00
55079;BME280;55187;49.496;6.010;2022-09-20T04:11:09;98072.06;;;4.99;100.00
55079;BME280;55187;49.496;6.010;2022-09-20T04:13:47;98068.91;;;4.95;100.00
55079;BME280;55187;49.496;6.010;2022-09-20T04:16:40;98075.69;;;4.88;100.00
55079;BME280;55187;49.496;6.010;2022-09-20T04:22:00;98069.72;;;4.96;100.00
55079;BME280;55187;49.496;6.010;2022-09-20T04:24:49;98068.63;;;4.98;100.00
55079;BME280;55187;49.496;6.010;2022-09-20T04:27:39;98066.41;;;5.03;100.00
55079;BME280;55187;49.496;6.010;2022-09-20T04:30:26;98068.22;;;4.93;100.00
55079;BME280;55187;49.496;6.010;2022-09-20T04:33:02;98056.63;;;4.96;100.00
55079;BME280;55187;49.496;6.010;2022-09-20T04:38:19;98056.63;;;4.76;100.00
55079;BME280;55187;49.496;6.010;2022-09-20T04:47:02;98068.38;;;4.62;100.00
55079;BME280;55187;49.496;6.010;2022-09-20T04:50:00;98067.38;;;4.63;100.00
55079;BME280;55187;49.496;6.010;2022-09-20T04:58:34;98078.97;;;4.51;100.00
55079;BME280;55187;49.496;6.010;2022-09-20T05:01:36;98072.34;;;4.57;100.00
55079;BME280;55187;49.496;6.010;2022-09-20T05:04:28;98071.94;;;4.52;100.00
55079;BME280;55187;49.496;6.010;2022-09-20T05:10:15;98073.63;;;4.62;100.00
55079;BME280;55187;49.496;6.010;2022-09-20T05:13:09;98074.72;;;4.70;100.00
55079;BME280;55187;49.496;6.010;2022-09-20T05:15:57;98082.28;;;4.63;100.00
55079;BME280;55187;49.496;6.010;2022-09-20T05:24:32;98086.97;;;4.50;100.00
55079;BME280;55187;49.496;6.010;2022-09-20T05:32:50;98091.38;;;4.49;100.00
55079;BME280;55187;49.496;6.010;2022-09-20T05:35:41;98095.94;;;4.57;100.00
55079;BME280;55187;49.496;6.010;2022-09-20T05:38:24;98092.91;;;4.61;100.00
55079;BME280;55187;49.496;6.010;2022-09-20T05:43:49;98101.06;;;4.68;100.00
55079;BME280;55187;49.496;6.010;2022-09-20T05:46:31;98100.22;;;4.77;100.00
55079;BME280;55187;49.496;6.010;2022-09-20T05:49:35;98101.88;;;4.78;100.00
55079;BME280;55187;49.496;6.010;2022-09-20T05:52:12;98098.88;;;4.93;100.00
55079;BME280;55187;49.496;6.010;2022-09-20T05:57:57;98105.34;;;5.18;100.00
55079;BME280;55187;49.496;6.010;2022-09-20T06:00:36;98108.78;;;5.18;100.00
55079;BME280;55187;49.496;6.010;2022-09-20T06:06:05;98115.34;;;5.52;100.00
55079;BME280;55187;49.496;6.010;2022-09-20T06:12:02;98120.53;;;5.81;100.00
55079;BME280;55187;49.496;6.010;2022-09-20T06:14:47;98116.31;;;5.98;100.00
55079;BME280;55187;49.496;6.010;2022-09-20T06:17:31;98118.09;;;6.07;100.00
55079;BME280;55187;49.496;6.010;2022-09-20T06:22:51;98124.03;;;6.09;100.00
55079;BME280;55187;49.496;6.010;2022-09-20T06:25:45;98130.09;;;6.09;100.00
55079;BME280;55187;49.496;6.010;2022-09-20T06:28:18;98123.78;;;6.02;100.00
55079;BME280;55187;49.496;6.010;2022-09-20T06:30:50;98126.28;;;6.04;100.00
55079;BME280;55187;49.496;6.010;2022-09-20T06:33:19;98126.66;;;6.09;100.00
55079;BME280;55187;49.496;6.010;2022-09-20T06:35:57;98121.84;;;6.04;100.00
55079;BME280;55187;49.496;6.010;2022-09-20T06:38:58;98127.78;;;6.06;100.00
55079;BME280;55187;49.496;6.010;2022-09-20T06:41:42;98124.47;;;6.04;100.00
55079;BME280;55187;49.496;6.010;2022-09-20T06:44:10;98126.53;;;6.11;100.00
55079;BME280;55187;49.496;6.010;2022-09-20T06:46:37;98135.72;;;6.24;100.00
55079;BME280;55187;49.496;6.010;2022-09-20T06:49:05;98130.91;;;6.47;100.00
55079;BME280;55187;49.496;6.010;2022-09-20T06:51:36;98133.34;;;6.77;100.00
55079;BME280;55187;49.496;6.010;2022-09-20T06:54:04;98137.41;;;7.07;100.00
55079;BME280;55187;49.496;6.010;2022-09-20T06:56:32;98134.72;;;7.43;100.00
55079;BME280;55187;49.496;6.010;2022-09-20T06:59:03;98147.75;;;7.70;100.00
55079;BME280;55187;49.496;6.010;2022-09-20T07:01:31;98150.59;;;7.77;100.00
55079;BME280;55187;49.496;6.010;2022-09-20T07:03:57;98148.50;;;7.81;100.00
55079;BME280;55187;49.496;6.010;2022-09-20T07:06:24;98153.56;;;7.74;100.00
55079;BME280;55187;49.496;6.010;2022-09-20T07:08:51;98146.47;;;7.48;100.00
55079;BME280;55187;49.496;6.010;2022-09-20T07:11:17;98151.72;;;7.48;100.00
55079;BME280;55187;49.496;6.010;2022-09-20T07:13:44;98144.66;;;7.49;100.00
55079;BME280;55187;49.496;6.010;2022-09-20T07:16:12;98151.38;;;7.25;100.00
55079;BME280;55187;49.496;6.010;2022-09-20T07:18:41;98147.94;;;7.25;100.00
55079;BME280;55187;49.496;6.010;2022-09-20T07:21:10;98145.31;;;7.25;100.00
55079;BME280;55187;49.496;6.010;2022-09-20T07:23:37;98144.44;;;7.24;100.00
55079;BME280;55187;49.496;6.010;2022-09-20T07:26:04;98144.06;;;9.25;100.00
55079;BME280;55187;49.496;6.010;2022-09-20T07:28:33;98141.13;;;10.56;100.00
55079;BME280;55187;49.496;6.010;2022-09-20T07:31:02;98147.63;;;11.84;98.23
55079;BME280;55187;49.496;6.010;2022-09-20T07:33:29;98152.44;;;13.42;85.26
55079;BME280;55187;49.496;6.010;2022-09-20T07:35:56;98149.50;;;13.30;80.87
55079;BME280;55187;49.496;6.010;2022-09-20T07:38:22;98141.88;;;14.46;78.45
55079;BME280;55187;49.496;6.010;2022-09-20T07:41:00;98146.72;;;15.86;71.96
55079;BME280;55187;49.496;6.010;2022-09-20T07:43:29;98153.13;;;17.08;69.62
55079;BME280;55187;49.496;6.010;2022-09-20T07:45:56;98150.66;;;17.64;64.98
55079;BME280;55187;49.496;6.010;2022-09-20T07:48:28;98159.06;;;18.17;61.98
55079;BME280;55187;49.496;6.010;2022-09-20T07:53:35;98164.94;;;20.31;56.25
55079;BME280;55187;49.496;6.010;2022-09-20T07:56:10;98166.34;;;18.10;58.91
55079;BME280;55187;49.496;6.010;2022-09-20T07:58:38;98174.41;;;16.11;65.16
55079;BME280;55187;49.496;6.010;2022-09-20T08:01:10;98170.44;;;13.90;72.72
55079;BME280;55187;49.496;6.010;2022-09-20T08:03:38;98164.31;;;13.96;72.38
55079;BME280;55187;49.496;6.010;2022-09-20T08:06:07;98174.47;;;13.57;74.77
55079;BME280;55187;49.496;6.010;2022-09-20T08:08:35;98173.03;;;14.87;69.22
55079;BME280;55187;49.496;6.010;2022-09-20T08:11:12;98173.94;;;14.25;71.08
55079;BME280;55187;49.496;6.010;2022-09-20T08:13:41;98178.28;;;14.67;70.38
55079;BME280;55187;49.496;6.010;2022-09-20T08:16:09;98188.38;;;16.00;66.82
55079;BME280;55187;49.496;6.010;2022-09-20T08:18:36;98186.66;;;16.46;62.98
55079;BME280;55187;49.496;6.010;2022-09-20T08:21:06;98178.13;;;16.89;62.50
55079;BME280;55187;49.496;6.010;2022-09-20T08:23:36;98185.47;;;17.64;60.12
55079;BME280;55187;49.496;6.010;2022-09-20T08:26:05;98188.81;;;20.16;54.61
55079;BME280;55187;49.496;6.010;2022-09-20T08:28:32;98195.44;;;21.41;51.41
55079;BME280;55187;49.496;6.010;2022-09-20T08:31:03;98189.13;;;20.66;51.20
55079;BME280;55187;49.496;6.010;2022-09-20T08:33:30;98202.94;;;20.11;51.10
55079;BME280;55187;49.496;6.010;2022-09-20T08:35:57;98198.16;;;20.37;50.92
55079;BME280;55187;49.496;6.010;2022-09-20T08:38:24;98194.47;;;20.90;51.18
55079;BME280;55187;49.496;6.010;2022-09-20T08:40:59;98189.50;;;20.58;49.21
55079;BME280;55187;49.496;6.010;2022-09-20T08:43:31;98192.97;;;18.49;55.95
55079;BME280;55187;49.496;6.010;2022-09-20T08:46:01;98204.00;;;17.33;58.59
55079;BME280;55187;49.496;6.010;2022-09-20T08:48:32;98201.50;;;16.22;63.58
55079;BME280;55187;49.496;6.010;2022-09-20T08:51:00;98196.63;;;15.92;64.82
55079;BME280;55187;49.496;6.010;2022-09-20T08:53:28;98200.00;;;15.26;65.96
55079;BME280;55187;49.496;6.010;2022-09-20T08:55:55;98191.56;;;18.46;57.29
55079;BME280;55187;49.496;6.010;2022-09-20T08:58:25;98200.00;;;18.86;56.45
55079;BME280;55187;49.496;6.010;2022-09-20T09:00:53;98193.41;;;18.45;56.19
55079;BME280;55187;49.496;6.010;2022-09-20T09:03:25;98198.81;;;15.62;63.34
55079;BME280;55187;49.496;6.010;2022-09-20T09:05:54;98201.22;;;17.15;59.67
55079;BME280;55187;49.496;6.010;2022-09-20T09:08:26;98201.63;;;18.07;56.95
55079;BME280;55187;49.496;6.010;2022-09-20T09:10:56;98199.69;;;17.32;58.61
55079;BME280;55187;49.496;6.010;2022-09-20T09:13:33;98189.09;;;18.44;56.44
55079;BME280;55187;49.496;6.010;2022-09-20T09:16:12;98197.22;;;16.86;60.13
55079;BME280;55187;49.496;6.010;2022-09-20T09:18:42;98200.91;;;14.85;65.60
55079;BME280;55187;49.496;6.010;2022-09-20T09:21:16;98194.56;;;14.51;68.24
55079;BME280;55187;49.496;6.010;2022-09-20T09:23:54;98181.97;;;14.32;68.48
55079;BME280;55187;49.496;6.010;2022-09-20T09:26:26;98190.63;;;14.75;70.69
55079;BME280;55187;49.496;6.010;2022-09-20T09:29:15;98191.16;;;14.29;70.25
55079;BME280;55187;49.496;6.010;2022-09-20T09:31:44;98187.91;;;14.68;69.18
55079;BME280;55187;49.496;6.010;2022-09-20T09:34:27;98188.97;;;14.81;68.62
55079;BME280;55187;49.496;6.010;2022-09-20T09:36:55;98191.16;;;15.19;67.39
55079;BME280;55187;49.496;6.010;2022-09-20T09:39:32;98195.28;;;15.21;69.71
55079;BME280;55187;49.496;6.010;2022-09-20T09:42:21;98187.69;;;14.63;70.34
55079;BME280;55187;49.496;6.010;2022-09-20T09:44:51;98189.19;;;14.73;69.31
55079;BME280;55187;49.496;6.010;2022-09-20T09:47:25;98186.00;;;15.04;68.92
55079;BME280;55187;49.496;6.010;2022-09-20T09:49:57;98182.19;;;15.40;69.07
55079;BME280;55187;49.496;6.010;2022-09-20T09:52:24;98184.72;;;14.17;69.75
55079;BME280;55187;49.496;6.010;2022-09-20T09:54:53;98182.66;;;13.84;72.67
55079;BME280;55187;49.496;6.010;2022-09-20T09:57:38;98182.13;;;13.95;70.18
55079;BME280;55187;49.496;6.010;2022-09-20T10:00:09;98186.31;;;13.55;72.51
55079;BME280;55187;49.496;6.010;2022-09-20T10:05:38;98176.88;;;13.52;74.42
55079;BME280;55187;49.496;6.010;2022-09-20T10:08:24;98178.34;;;13.33;72.58
55079;BME280;55187;49.496;6.010;2022-09-20T10:16:55;98187.94;;;12.62;75.47
55079;BME280;55187;49.496;6.010;2022-09-20T10:19:47;98181.69;;;13.20;75.00
55079;BME280;55187;49.496;6.010;2022-09-20T10:25:33;98178.66;;;13.45;73.05
55079;BME280;55187;49.496;6.010;2022-09-20T10:28:21;98181.56;;;13.50;72.59
55079;BME280;55187;49.496;6.010;2022-09-20T10:31:11;98172.06;;;13.91;72.06
55079;BME280;55187;49.496;6.010;2022-09-20T10:34:00;98184.41;;;13.70;69.65
55079;BME280;55187;49.496;6.010;2022-09-20T10:36:40;98176.47;;;13.77;68.79
55079;BME280;55187;49.496;6.010;2022-09-20T10:39:24;98173.56;;;14.35;67.79
55079;BME280;55187;49.496;6.010;2022-09-20T10:45:00;98171.16;;;14.81;64.89
55079;BME280;55187;49.496;6.010;2022-09-20T10:47:45;98161.25;;;14.62;66.23
55079;BME280;55187;49.496;6.010;2022-09-20T10:50:23;98162.94;;;14.00;67.43
55079;BME280;55187;49.496;6.010;2022-09-20T10:56:14;98170.22;;;13.91;67.27
55079;BME280;55187;49.496;6.010;2022-09-20T11:01:40;98169.50;;;14.04;68.29
55079;BME280;55187;49.496;6.010;2022-09-20T11:09:35;98179.63;;;14.15;68.83
55079;BME280;55187;49.496;6.010;2022-09-20T11:12:15;98177.53;;;13.82;69.99
55079;BME280;55187;49.496;6.010;2022-09-20T11:15:00;98186.13;;;13.20;71.86
55079;BME280;55187;49.496;6.010;2022-09-20T11:17:35;98192.88;;;12.65;75.12
55079;BME280;55187;49.496;6.010;2022-09-20T11:20:15;98186.13;;;12.32;75.59
55079;BME280;55187;49.496;6.010;2022-09-20T11:22:57;98187.13;;;12.31;76.82
55079;BME280;55187;49.496;6.010;2022-09-20T11:25:42;98191.63;;;12.31;78.63
55079;BME280;55187;49.496;6.010;2022-09-20T11:28:24;98180.16;;;12.60;76.23
55079;BME280;55187;49.496;6.010;2022-09-20T11:36:33;98175.78;;;13.96;69.73
55079;BME280;55187;49.496;6.010;2022-09-20T11:39:12;98179.06;;;14.26;68.03
55079;BME280;55187;49.496;6.010;2022-09-20T11:41:41;98176.81;;;14.30;65.95
55079;BME280;55187;49.496;6.010;2022-09-20T11:44:13;98178.78;;;14.50;63.98
55079;BME280;55187;49.496;6.010;2022-09-20T11:46:44;98176.31;;;14.13;64.54
55079;BME280;55187;49.496;6.010;2022-09-20T11:49:17;98178.78;;;14.15;66.83
55079;BME280;55187;49.496;6.010;2022-09-20T11:54:43;98175.22;;;14.71;66.16
55079;BME280;55187;49.496;6.010;2022-09-20T11:57:17;98174.34;;;14.22;67.14
55079;BME280;55187;49.496;6.010;2022-09-20T11:59:50;98174.19;;;14.02;66.54
55079;BME280;55187;49.496;6.010;2022-09-20T12:02:24;98167.00;;;14.31;68.08
55079;BME280;55187;49.496;6.010;2022-09-20T12:04:54;98166.66;;;14.40;68.70
55079;BME280;55187;49.496;6.010;2022-09-20T12:07:33;98163.41;;;14.45;65.89
55079;BME280;55187;49.496;6.010;2022-09-20T12:10:05;98161.63;;;14.24;65.67
55079;BME280;55187;49.496;6.010;2022-09-20T12:12:47;98167.09;;;13.81;67.30
55079;BME280;55187;49.496;6.010;2022-09-20T12:15:35;98169.28;;;14.05;67.26
55079;BME280;55187;49.496;6.010;2022-09-20T12:18:25;98164.22;;;14.11;68.35
55079;BME280;55187;49.496;6.010;2022-09-20T12:21:13;98155.72;;;14.63;65.35
55079;BME280;55187;49.496;6.010;2022-09-20T12:23:43;98156.72;;;15.50;62.89
55079;BME280;55187;49.496;6.010;2022-09-20T12:26:34;98150.97;;;15.34;64.05
55079;BME280;55187;49.496;6.010;2022-09-20T12:29:50;98153.28;;;15.77;62.79
55079;BME280;55187;49.496;6.010;2022-09-20T12:31:59;98146.69;;;15.52;61.83
55079;BME280;55187;49.496;6.010;2022-09-20T12:34:33;98150.72;;;15.02;65.05
55079;BME280;55187;49.496;6.010;2022-09-20T12:37:23;98146.72;;;14.71;63.83
55079;BME280;55187;49.496;6.010;2022-09-20T12:39:52;98146.00;;;14.49;64.22
55079;BME280;55187;49.496;6.010;2022-09-20T12:42:28;98150.53;;;14.14;64.53
55079;BME280;55187;49.496;6.010;2022-09-20T12:45:14;98140.00;;;14.34;64.49
55079;BME280;55187;49.496;6.010;2022-09-20T12:47:51;98138.00;;;14.07;64.90
55079;BME280;55187;49.496;6.010;2022-09-20T12:50:20;98142.94;;;14.11;64.27
55079;BME280;55187;49.496;6.010;2022-09-20T12:53:01;98134.19;;;13.89;64.30
55079;BME280;55187;49.496;6.010;2022-09-20T12:58:18;98137.88;;;14.22;63.72
55079;BME280;55187;49.496;6.010;2022-09-20T13:03:52;98136.91;;;14.78;60.54
55079;BME280;55187;49.496;6.010;2022-09-20T13:06:22;98134.16;;;14.58;62.22
55079;BME280;55187;49.496;6.010;2022-09-20T13:09:08;98140.03;;;14.40;62.43
55079;BME280;55187;49.496;6.010;2022-09-20T13:11:48;98143.13;;;14.99;61.42
55079;BME280;55187;49.496;6.010;2022-09-20T13:14:23;98140.09;;;15.28;60.31
55079;BME280;55187;49.496;6.010;2022-09-20T13:16:54;98137.66;;;15.34;60.65
55079;BME280;55187;49.496;6.010;2022-09-20T13:19:26;98129.66;;;15.87;58.70
55079;BME280;55187;49.496;6.010;2022-09-20T13:22:03;98135.41;;;15.64;59.97
55079;BME280;55187;49.496;6.010;2022-09-20T13:24:36;98129.88;;;15.65;58.48
55079;BME280;55187;49.496;6.010;2022-09-20T13:27:10;98124.72;;;15.57;58.81
55079;BME280;55187;49.496;6.010;2022-09-20T13:29:39;98133.75;;;15.56;59.19
55079;BME280;55187;49.496;6.010;2022-09-20T13:32:28;98132.09;;;15.55;58.73
55079;BME280;55187;49.496;6.010;2022-09-20T13:35:07;98133.94;;;15.21;60.16
55079;BME280;55187;49.496;6.010;2022-09-20T13:37:37;98141.41;;;14.71;61.84
55079;BME280;55187;49.496;6.010;2022-09-20T13:40:21;98141.09;;;14.53;62.04
55079;BME280;55187;49.496;6.010;2022-09-20T13:42:51;98138.44;;;14.11;63.68
55079;BME280;55187;49.496;6.010;2022-09-20T13:45:19;98131.28;;;13.83;63.75
55079;BME280;55187;49.496;6.010;2022-09-20T13:47:50;98132.13;;;13.56;65.95
55079;BME280;55187;49.496;6.010;2022-09-20T13:50:22;98132.00;;;13.71;65.52
55079;BME280;55187;49.496;6.010;2022-09-20T13:52:53;98138.06;;;13.36;68.03
55079;BME280;55187;49.496;6.010;2022-09-20T13:55:26;98142.97;;;13.18;66.14
55079;BME280;55187;49.496;6.010;2022-09-20T13:57:55;98139.75;;;13.22;65.89
55079;BME280;55187;49.496;6.010;2022-09-20T14:00:23;98144.41;;;13.14;66.61
55079;BME280;55187;49.496;6.010;2022-09-20T14:02:52;98146.19;;;13.28;66.31
55079;BME280;55187;49.496;6.010;2022-09-20T14:05:28;98148.38;;;13.03;67.85
55079;BME280;55187;49.496;6.010;2022-09-20T14:07:56;98147.31;;;12.83;69.26
55079;BME280;55187;49.496;6.010;2022-09-20T14:10:36;98153.84;;;12.65;70.09
55079;BME280;55187;49.496;6.010;2022-09-20T14:13:07;98153.59;;;12.75;69.68
55079;BME280;55187;49.496;6.010;2022-09-20T14:15:37;98147.00;;;12.56;69.72
55079;BME280;55187;49.496;6.010;2022-09-20T14:18:06;98159.25;;;12.72;69.11
55079;BME280;55187;49.496;6.010;2022-09-20T14:20:37;98160.13;;;12.94;68.96
55079;BME280;55187;49.496;6.010;2022-09-20T14:23:03;98149.31;;;12.59;68.69
55079;BME280;55187;49.496;6.010;2022-09-20T14:25:30;98156.94;;;12.84;66.99
55079;BME280;55187;49.496;6.010;2022-09-20T14:28:16;98157.47;;;12.94;67.52
55079;BME280;55187;49.496;6.010;2022-09-20T14:30:44;98144.44;;;12.99;66.66
55079;BME280;55187;49.496;6.010;2022-09-20T14:33:17;98146.41;;;13.12;66.25
55079;BME280;55187;49.496;6.010;2022-09-20T14:35:47;98133.31;;;13.32;66.10
55079;BME280;55187;49.496;6.010;2022-09-20T14:38:16;98134.09;;;13.47;64.76
55079;BME280;55187;49.496;6.010;2022-09-20T14:40:45;98133.91;;;13.49;64.66
55079;BME280;55187;49.496;6.010;2022-09-20T14:43:21;98134.38;;;13.59;64.42
55079;BME280;55187;49.496;6.010;2022-09-20T14:45:52;98134.00;;;13.19;63.47
55079;BME280;55187;49.496;6.010;2022-09-20T14:48:39;98137.72;;;13.25;63.37
55079;BME280;55187;49.496;6.010;2022-09-20T14:51:21;98131.78;;;13.22;63.69
55079;BME280;55187;49.496;6.010;2022-09-20T14:53:50;98140.56;;;13.01;64.01
55079;BME280;55187;49.496;6.010;2022-09-20T14:56:33;98131.75;;;13.16;64.05
55079;BME280;55187;49.496;6.010;2022-09-20T14:59:22;98137.41;;;12.91;65.64
55079;BME280;55187;49.496;6.010;2022-09-20T15:02:10;98132.59;;;13.01;66.51
55079;BME280;55187;49.496;6.010;2022-09-20T15:04:40;98136.81;;;12.74;66.63
55079;BME280;55187;49.496;6.010;2022-09-20T15:07:09;98129.06;;;12.94;66.62
55079;BME280;55187;49.496;6.010;2022-09-20T15:09:37;98124.19;;;13.19;66.68
55079;BME280;55187;49.496;6.010;2022-09-20T15:12:06;98126.09;;;13.04;71.04
55079;BME280;55187;49.496;6.010;2022-09-20T15:14:35;98125.47;;;13.23;69.28
55079;BME280;55187;49.496;6.010;2022-09-20T15:17:02;98135.47;;;13.21;69.22
55079;BME280;55187;49.496;6.010;2022-09-20T15:19:28;98128.31;;;13.22;70.18
55079;BME280;55187;49.496;6.010;2022-09-20T15:21:55;98130.09;;;13.36;70.59
55079;BME280;55187;49.496;6.010;2022-09-20T15:24:22;98131.38;;;13.40;70.17
55079;BME280;55187;49.496;6.010;2022-09-20T15:26:48;98121.69;;;13.11;69.05
55079;BME280;55187;49.496;6.010;2022-09-20T15:29:15;98127.81;;;13.33;73.45
55079;BME280;55187;49.496;6.010;2022-09-20T15:31:43;98130.88;;;13.30;73.19
55079;BME280;55187;49.496;6.010;2022-09-20T15:34:11;98134.38;;;12.94;73.59
55079;BME280;55187;49.496;6.010;2022-09-20T15:36:39;98123.75;;;12.94;68.06
55079;BME280;55187;49.496;6.010;2022-09-20T15:39:05;98130.03;;;12.72;69.37
55079;BME280;55187;49.496;6.010;2022-09-20T15:41:31;98138.84;;;12.72;73.29
55079;BME280;55187;49.496;6.010;2022-09-20T15:43:58;98135.41;;;12.42;76.51
55079;BME280;55187;49.496;6.010;2022-09-20T15:46:25;98143.00;;;12.30;78.15
55079;BME280;55187;49.496;6.010;2022-09-20T15:48:52;98136.81;;;12.08;74.18
55079;BME280;55187;49.496;6.010;2022-09-20T15:51:19;98132.16;;;12.10;69.67
55079;BME280;55187;49.496;6.010;2022-09-20T15:53:53;98129.28;;;12.12;70.45